createdAt,value
2018-12-25T00:00:03.231Z,83.18
2018-12-25T00:02:32.513Z,83.31
2018-12-25T00:05:01.896Z,83.05
2018-12-25T00:07:31.294Z,83.15
2018-12-25T00:10:00.712Z,83.11
2018-12-25T00:12:30.010Z,83.10
2018-12-25T00:14:59.284Z,82.87
2018-12-25T00:17:28.640Z,82.45
2018-12-25T00:19:57.917Z,82.55
2018-12-25T00:22:27.182Z,82.65
2018-12-25T00:24:56.510Z,82.71
2018-12-25T00:27:25.777Z,82.41
2018-12-25T00:29:55.115Z,82.44
2018-12-25T00:32:24.390Z,82.67
2018-12-25T00:34:53.858Z,82.67
2018-12-25T00:37:23.089Z,82.83
2018-12-25T00:39:52.357Z,82.88
2018-12-25T00:42:21.593Z,82.93
2018-12-25T00:44:50.892Z,82.91
2018-12-25T00:47:20.172Z,83.04
2018-12-25T00:49:49.594Z,83.04
2018-12-25T00:52:18.935Z,83.15
2018-12-25T00:54:48.144Z,82.82
2018-12-25T00:57:17.418Z,82.83
2018-12-25T00:59:46.705Z,83.20
2018-12-25T01:02:15.977Z,83.23
2018-12-25T01:04:45.208Z,83.35
2018-12-25T01:07:14.498Z,83.29
2018-12-25T01:09:43.810Z,83.29
2018-12-25T01:12:13.103Z,83.33
2018-12-25T01:14:42.427Z,83.02
2018-12-25T01:17:11.701Z,82.95
2018-12-25T01:19:40.991Z,82.94
2018-12-25T01:22:10.263Z,83.01
2018-12-25T01:24:39.503Z,82.69
2018-12-25T01:27:08.902Z,82.55
2018-12-25T01:29:38.226Z,82.43
2018-12-25T01:32:07.525Z,82.46
2018-12-25T01:34:36.819Z,82.14
2018-12-25T01:37:06.124Z,82.10
2018-12-25T01:39:35.426Z,81.89
2018-12-25T01:42:04.661Z,82.01
2018-12-25T01:44:34.015Z,81.81
2018-12-25T01:47:03.335Z,81.75
2018-12-25T01:49:32.585Z,81.47
2018-12-25T01:52:01.950Z,81.62
2018-12-25T01:54:31.179Z,81.48
2018-12-25T01:57:00.623Z,81.47
2018-12-25T01:59:29.956Z,81.61
2018-12-25T02:01:59.195Z,81.34
2018-12-25T02:04:28.447Z,81.34
2018-12-25T02:06:57.684Z,81.16
2018-12-25T02:09:26.892Z,81.07
2018-12-25T02:11:56.115Z,81.04
2018-12-25T02:14:25.341Z,81.12
2018-12-25T02:16:54.627Z,80.99
2018-12-25T02:19:23.920Z,80.68
2018-12-25T02:21:53.218Z,80.51
2018-12-25T02:24:22.444Z,80.60
2018-12-25T02:26:51.684Z,80.42
2018-12-25T02:29:20.916Z,80.37
2018-12-25T02:31:50.230Z,80.19
2018-12-25T02:34:19.440Z,80.21
2018-12-25T02:36:48.663Z,79.90
2018-12-25T02:39:17.932Z,79.68
2018-12-25T02:41:47.251Z,79.55
2018-12-25T02:44:16.489Z,79.65
2018-12-25T02:46:45.745Z,79.66
2018-12-25T02:49:14.976Z,79.97
2018-12-25T02:51:44.249Z,79.79
2018-12-25T02:54:13.523Z,79.37
2018-12-25T02:56:42.853Z,79.40
2018-12-25T02:59:12.124Z,79.02
2018-12-25T03:01:41.455Z,78.67
2018-12-25T03:04:10.697Z,79.00
2018-12-25T03:06:39.950Z,78.21
2018-12-25T03:09:09.228Z,78.02
2018-12-25T03:11:38.481Z,78.08
2018-12-25T03:14:07.723Z,77.81
2018-12-25T03:16:37.053Z,78.17
2018-12-25T03:19:06.273Z,77.87
2018-12-25T03:21:35.571Z,77.41
2018-12-25T03:24:04.831Z,77.03
2018-12-25T03:26:34.136Z,76.66
2018-12-25T03:29:03.363Z,76.04
2018-12-25T03:31:32.589Z,76.13
2018-12-25T03:34:01.843Z,75.68
2018-12-25T03:36:31.082Z,75.95
2018-12-25T03:39:00.319Z,75.90
2018-12-25T03:41:29.625Z,75.62
2018-12-25T03:43:58.944Z,75.68
2018-12-25T03:46:28.228Z,75.71
2018-12-25T03:48:57.477Z,75.94
2018-12-25T03:51:26.724Z,75.60
2018-12-25T03:53:56.050Z,75.74
2018-12-25T03:56:25.306Z,75.62
2018-12-25T03:58:54.528Z,75.84
2018-12-25T04:01:23.855Z,75.86
2018-12-25T04:03:53.087Z,76.06
2018-12-25T04:06:22.347Z,76.07
2018-12-25T04:08:51.621Z,75.98
2018-12-25T04:11:20.851Z,76.06
2018-12-25T04:13:50.089Z,76.36
2018-12-25T04:16:19.459Z,76.45
2018-12-25T04:18:48.736Z,76.33
2018-12-25T04:21:18.042Z,76.32
2018-12-25T04:23:47.369Z,76.69
2018-12-25T04:26:16.583Z,76.88
2018-12-25T04:28:45.850Z,76.75
2018-12-25T04:31:15.134Z,76.84
2018-12-25T04:33:44.374Z,77.22
2018-12-25T04:36:13.589Z,77.01
2018-12-25T04:38:42.824Z,77.21
2018-12-25T04:41:12.079Z,77.17
2018-12-25T04:43:41.330Z,77.20
2018-12-25T04:46:10.652Z,77.28
2018-12-25T04:48:39.883Z,77.62
2018-12-25T04:51:09.165Z,77.57
2018-12-25T04:53:38.440Z,77.62
2018-12-25T04:56:07.732Z,77.66
2018-12-25T04:58:37.008Z,78.03
2018-12-25T05:01:06.339Z,78.22
2018-12-25T05:03:35.593Z,77.99
2018-12-25T05:06:04.940Z,78.30
2018-12-25T05:08:34.254Z,78.79
2018-12-25T05:11:03.510Z,78.79
2018-12-25T05:13:32.847Z,79.08
2018-12-25T05:16:02.104Z,78.69
2018-12-25T05:18:31.314Z,78.56
2018-12-25T05:21:00.660Z,78.73
2018-12-25T05:23:29.935Z,79.31
2018-12-25T05:25:59.257Z,79.77
2018-12-25T05:28:28.477Z,79.72
2018-12-25T05:30:57.713Z,79.68
2018-12-25T05:33:26.969Z,79.83
2018-12-25T05:35:56.203Z,80.04
2018-12-25T05:38:25.451Z,80.31
2018-12-25T05:40:54.745Z,80.24
2018-12-25T05:43:24.003Z,80.31
2018-12-25T05:45:53.266Z,80.34
2018-12-25T05:48:22.540Z,80.56
2018-12-25T05:50:51.849Z,80.42
2018-12-25T05:53:21.078Z,80.60
2018-12-25T05:55:50.311Z,80.64
2018-12-25T05:58:19.579Z,80.70
2018-12-25T06:00:48.852Z,80.70
2018-12-25T06:03:18.067Z,80.80
2018-12-25T06:05:47.397Z,80.46
2018-12-25T06:08:16.667Z,80.25
2018-12-25T06:10:45.929Z,80.33
2018-12-25T06:13:15.254Z,80.23
2018-12-25T06:15:44.500Z,79.91
2018-12-25T06:18:13.742Z,80.06
2018-12-25T06:20:43.025Z,80.12
2018-12-25T06:23:12.343Z,80.13
2018-12-25T06:25:41.644Z,80.29
2018-12-25T06:28:10.909Z,80.30
2018-12-25T06:30:40.132Z,80.35
2018-12-25T06:33:09.407Z,80.12
2018-12-25T06:35:38.645Z,80.11
2018-12-25T06:38:07.985Z,80.22
2018-12-25T06:40:37.232Z,80.12
2018-12-25T06:43:06.473Z,80.17
2018-12-25T06:45:35.751Z,80.10
2018-12-25T06:48:05.019Z,80.21
2018-12-25T06:50:34.283Z,80.08
2018-12-25T06:53:03.577Z,79.99
2018-12-25T06:55:32.790Z,79.74
2018-12-25T06:58:02.019Z,79.72
2018-12-25T07:00:31.374Z,79.27
2018-12-25T07:03:00.598Z,79.39
2018-12-25T07:05:29.851Z,79.93
2018-12-25T07:07:59.092Z,79.78
2018-12-25T07:10:28.476Z,79.79
2018-12-25T07:12:57.705Z,79.22
2018-12-25T07:15:32.998Z,79.39
2018-12-25T07:17:56.199Z,79.37
2018-12-25T07:20:25.445Z,79.42
2018-12-25T07:22:54.719Z,79.52
2018-12-25T07:25:23.987Z,79.82
2018-12-25T07:27:53.234Z,79.61
2018-12-25T07:30:22.495Z,79.94
2018-12-25T07:32:52.084Z,80.30
2018-12-25T07:35:21.359Z,80.77
2018-12-25T07:37:50.670Z,80.88
2018-12-25T07:40:19.992Z,81.33
2018-12-25T07:42:49.317Z,81.20
2018-12-25T07:45:18.585Z,81.41
2018-12-25T07:47:47.895Z,81.28
2018-12-25T07:50:17.094Z,81.19
2018-12-25T07:52:46.304Z,81.32
2018-12-25T07:55:15.577Z,81.54
2018-12-25T07:57:44.860Z,81.33
2018-12-25T08:00:14.132Z,81.32
2018-12-25T08:02:43.416Z,81.23
2018-12-25T08:05:12.664Z,81.12
2018-12-25T08:07:41.989Z,81.51
2018-12-25T08:10:11.230Z,81.37
2018-12-25T08:12:40.572Z,81.37
2018-12-25T08:15:09.830Z,81.26
2018-12-25T08:17:39.070Z,81.13
2018-12-25T08:20:08.338Z,80.97
2018-12-25T08:22:37.610Z,80.85
2018-12-25T08:25:06.867Z,80.88
2018-12-25T08:27:36.122Z,80.47
2018-12-25T08:30:05.468Z,80.33
2018-12-25T08:32:34.717Z,79.67
2018-12-25T08:35:03.950Z,79.84
2018-12-25T08:37:33.230Z,79.62
2018-12-25T08:40:02.565Z,79.36
2018-12-25T08:42:31.817Z,79.01
2018-12-25T08:45:01.058Z,78.94
2018-12-25T08:47:30.320Z,78.93
2018-12-25T08:49:59.580Z,78.84
2018-12-25T08:52:28.867Z,78.82
2018-12-25T08:54:58.189Z,78.51
2018-12-25T08:57:27.438Z,78.37
2018-12-25T08:59:56.801Z,78.46
2018-12-25T09:02:26.170Z,78.02
2018-12-25T09:04:55.505Z,77.78
2018-12-25T09:07:24.774Z,77.86
2018-12-25T09:09:54.019Z,77.83
2018-12-25T09:12:23.286Z,77.89
2018-12-25T09:14:52.545Z,77.48
2018-12-25T09:17:21.812Z,77.37
2018-12-25T09:19:51.051Z,77.19
2018-12-25T09:22:20.345Z,77.41
2018-12-25T09:24:49.628Z,76.78
2018-12-25T09:27:18.922Z,77.05
2018-12-25T09:29:48.162Z,76.85
2018-12-25T09:32:17.490Z,76.68
2018-12-25T09:34:48.032Z,76.47
2018-12-25T09:37:16.086Z,76.64
2018-12-25T09:39:45.400Z,76.42
2018-12-25T09:42:14.634Z,76.39
2018-12-25T09:44:43.884Z,76.56
2018-12-25T09:47:13.125Z,76.58
2018-12-25T09:49:42.407Z,76.52
2018-12-25T09:52:11.636Z,76.44
2018-12-25T09:54:40.983Z,76.46
2018-12-25T09:57:10.257Z,76.66
2018-12-25T09:59:39.598Z,76.47
2018-12-25T10:02:08.876Z,76.54
2018-12-25T10:04:38.144Z,76.69
2018-12-25T10:07:07.408Z,76.79
2018-12-25T10:09:36.673Z,76.20
2018-12-25T10:12:05.932Z,76.36
2018-12-25T10:14:35.207Z,76.20
2018-12-25T10:17:04.457Z,76.37
2018-12-25T10:19:33.711Z,76.12
2018-12-25T10:22:05.204Z,76.07
2018-12-25T10:24:32.475Z,75.91
2018-12-25T10:27:01.702Z,76.17
2018-12-25T10:29:30.972Z,75.73
2018-12-25T10:32:00.228Z,75.56
2018-12-25T10:34:29.634Z,75.12
2018-12-25T10:36:58.794Z,74.98
2018-12-25T10:39:28.086Z,75.10
2018-12-25T10:41:57.384Z,75.10
2018-12-25T10:44:26.697Z,74.98
2018-12-25T10:46:55.994Z,74.94
2018-12-25T10:49:25.314Z,74.74
2018-12-25T10:51:54.519Z,74.54
2018-12-25T10:54:23.760Z,74.57
2018-12-25T10:56:53.031Z,74.50
2018-12-25T10:59:22.414Z,74.31
2018-12-25T11:01:51.747Z,74.23
2018-12-25T11:04:21.104Z,74.69
2018-12-25T11:06:50.321Z,74.50
2018-12-25T11:09:19.587Z,73.99
2018-12-25T11:11:49.004Z,74.25
2018-12-25T11:14:18.348Z,74.16
2018-12-25T11:16:47.624Z,73.80
2018-12-25T11:19:16.940Z,73.87
2018-12-25T11:21:46.215Z,73.87
2018-12-25T11:24:15.473Z,74.03
2018-12-25T11:26:44.740Z,74.06
2018-12-25T11:29:13.982Z,73.63
2018-12-25T11:31:43.245Z,73.48
2018-12-25T11:34:12.642Z,73.60
2018-12-25T11:36:41.932Z,73.66
2018-12-25T11:39:11.244Z,73.87
2018-12-25T11:41:40.550Z,73.60
2018-12-25T11:44:09.808Z,73.60
2018-12-25T11:46:39.154Z,73.63
2018-12-25T11:49:08.536Z,74.17
2018-12-25T11:51:38.001Z,73.73
2018-12-25T11:54:07.546Z,73.78
2018-12-25T11:56:36.944Z,73.82
2018-12-25T11:59:06.377Z,73.39
2018-12-25T12:01:35.724Z,73.12
2018-12-25T12:04:04.962Z,73.33
2018-12-25T12:06:34.355Z,73.20
2018-12-25T12:09:04.872Z,73.46
2018-12-25T12:11:34.087Z,73.25
2018-12-25T12:14:03.394Z,73.34
2018-12-25T12:16:32.686Z,73.19
2018-12-25T12:19:02.006Z,73.12
2018-12-25T12:21:31.383Z,72.85
2018-12-25T12:24:00.778Z,72.61
2018-12-25T12:26:30.039Z,72.51
2018-12-25T12:28:59.383Z,72.49
2018-12-25T12:31:28.700Z,71.97
2018-12-25T12:33:57.989Z,71.56
2018-12-25T12:36:27.252Z,71.25
2018-12-25T12:38:56.585Z,70.86
2018-12-25T12:41:25.930Z,71.17
2018-12-25T12:43:55.188Z,70.82
2018-12-25T12:46:24.420Z,70.13
2018-12-25T12:48:53.674Z,70.08
2018-12-25T12:51:22.998Z,70.42
2018-12-25T12:53:52.316Z,70.03
2018-12-25T12:56:21.601Z,69.70
2018-12-25T12:58:50.920Z,69.45
2018-12-25T13:01:20.178Z,69.43
2018-12-25T13:03:49.524Z,69.58
2018-12-25T13:06:18.894Z,69.76
2018-12-25T13:08:48.149Z,69.39
2018-12-25T13:11:17.397Z,69.06
2018-12-25T13:13:46.697Z,68.22
2018-12-25T13:16:16.032Z,68.19
2018-12-25T13:18:45.298Z,67.69
2018-12-25T13:21:14.624Z,67.66
2018-12-25T13:23:43.884Z,68.05
2018-12-25T13:26:13.230Z,68.35
2018-12-25T13:28:42.610Z,68.69
2018-12-25T13:31:11.933Z,68.62
2018-12-25T13:33:41.234Z,68.66
2018-12-25T13:36:10.518Z,68.68
2018-12-25T13:38:39.804Z,68.27
2018-12-25T13:41:09.108Z,68.93
2018-12-25T13:43:38.404Z,69.22
2018-12-25T13:46:07.725Z,69.02
2018-12-25T13:48:37.380Z,68.82
2018-12-25T13:51:06.724Z,69.22
2018-12-25T13:53:35.978Z,69.04
2018-12-25T13:56:05.326Z,69.22
2018-12-25T13:58:34.660Z,69.22
2018-12-25T14:01:04.036Z,68.72
2018-12-25T14:03:33.378Z,69.06
2018-12-25T14:06:02.648Z,69.22
2018-12-25T14:08:31.959Z,69.49
2018-12-25T14:11:01.202Z,69.86
2018-12-25T14:13:30.439Z,70.21
2018-12-25T14:15:59.770Z,70.31
2018-12-25T14:18:29.108Z,70.38
2018-12-25T14:20:58.366Z,70.61
2018-12-25T14:23:27.750Z,70.75
2018-12-25T14:25:57.038Z,70.85
2018-12-25T14:28:26.354Z,71.05
2018-12-25T14:30:55.661Z,71.20
2018-12-25T14:33:24.925Z,71.42
2018-12-25T14:35:54.460Z,71.45
2018-12-25T14:38:23.771Z,71.35
2018-12-25T14:40:53.061Z,71.46
2018-12-25T14:43:22.308Z,71.65
2018-12-25T14:45:51.682Z,71.92
2018-12-25T14:48:20.986Z,71.99
2018-12-25T14:50:50.222Z,72.28
2018-12-25T14:53:20.059Z,72.30
2018-12-25T14:55:48.754Z,72.55
2018-12-25T14:58:18.200Z,72.55
2018-12-25T15:00:47.482Z,72.59
2018-12-25T15:03:16.805Z,72.72
2018-12-25T15:05:46.066Z,72.81
2018-12-25T15:08:15.373Z,72.49
2018-12-25T15:10:44.670Z,72.41
2018-12-25T15:13:13.960Z,72.40
2018-12-25T15:15:43.227Z,72.79
2018-12-25T15:18:12.580Z,72.56
2018-12-25T15:20:42.020Z,72.55
2018-12-25T15:23:11.320Z,72.56
2018-12-25T15:25:40.756Z,72.80
2018-12-25T15:28:10.072Z,72.79
2018-12-25T15:30:39.392Z,72.97
2018-12-25T15:33:08.768Z,72.83
2018-12-25T15:35:38.083Z,72.92
2018-12-25T15:38:07.381Z,73.17
2018-12-25T15:40:36.662Z,73.01
2018-12-25T15:43:05.883Z,73.20
2018-12-25T15:45:35.208Z,73.39
2018-12-25T15:48:04.610Z,73.34
2018-12-25T15:50:33.870Z,73.56
2018-12-25T15:53:03.196Z,73.77
2018-12-25T15:55:32.479Z,73.89
2018-12-25T15:58:01.750Z,73.76
2018-12-25T16:00:32.037Z,73.66
2018-12-25T16:03:00.302Z,73.80
2018-12-25T16:05:29.716Z,73.72
2018-12-25T16:07:59.004Z,73.60
2018-12-25T16:10:28.339Z,73.80
2018-12-25T16:12:57.603Z,73.61
2018-12-25T16:15:26.924Z,73.49
2018-12-25T16:17:56.288Z,73.66
2018-12-25T16:20:25.543Z,73.46
2018-12-25T16:22:54.812Z,73.33
2018-12-25T16:25:24.108Z,73.52
2018-12-25T16:27:53.376Z,73.47
2018-12-25T16:30:22.609Z,73.48
2018-12-25T16:32:51.923Z,73.28
2018-12-25T16:35:21.692Z,72.90
2018-12-25T16:37:51.054Z,72.92
2018-12-25T16:40:20.317Z,72.99
2018-12-25T16:42:49.571Z,73.12
2018-12-25T16:45:18.821Z,73.14
2018-12-25T16:47:48.124Z,72.83
2018-12-25T16:50:17.441Z,72.99
2018-12-25T16:52:46.731Z,73.01
2018-12-25T16:55:16.040Z,73.06
2018-12-25T16:57:45.330Z,73.24
2018-12-25T17:00:14.658Z,73.27
2018-12-25T17:02:43.924Z,73.41
2018-12-25T17:05:13.205Z,73.49
2018-12-25T17:07:42.536Z,73.57
2018-12-25T17:10:11.797Z,73.84
2018-12-25T17:12:41.047Z,73.84
2018-12-25T17:15:10.364Z,73.83
2018-12-25T17:17:39.653Z,74.03
2018-12-25T17:20:09.138Z,74.17
2018-12-25T17:22:38.495Z,74.30
2018-12-25T17:25:07.744Z,74.54
2018-12-25T17:27:37.014Z,75.17
2018-12-25T17:30:07.664Z,75.56
2018-12-25T17:32:36.989Z,75.79
2018-12-25T17:35:06.242Z,76.14
2018-12-25T17:37:35.600Z,76.40
2018-12-25T17:40:04.875Z,76.32
2018-12-25T17:42:34.143Z,76.58
2018-12-25T17:45:03.490Z,76.31
2018-12-25T17:47:32.741Z,76.47
2018-12-25T17:50:02.018Z,76.60
2018-12-25T17:52:31.245Z,76.33
2018-12-25T17:55:00.507Z,76.60
2018-12-25T17:57:29.756Z,76.62
2018-12-25T17:59:59.122Z,76.77
2018-12-25T18:02:28.342Z,76.69
2018-12-25T18:04:57.705Z,76.38
2018-12-25T18:07:26.931Z,76.49
2018-12-25T18:09:56.240Z,76.36
2018-12-25T18:12:25.502Z,76.40
2018-12-25T18:14:54.761Z,76.00
2018-12-25T18:17:23.995Z,75.64
2018-12-25T18:19:53.290Z,75.69
2018-12-25T18:22:22.633Z,75.60
2018-12-25T18:24:52.118Z,75.25
2018-12-25T18:27:21.429Z,75.17
2018-12-25T18:29:50.676Z,74.93
2018-12-25T18:32:20.017Z,74.94
2018-12-25T18:34:49.262Z,74.79
2018-12-25T18:37:18.562Z,74.99
2018-12-25T18:39:56.035Z,74.99
2018-12-25T18:42:25.321Z,74.74
2018-12-25T18:44:54.590Z,74.99
2018-12-25T18:47:23.881Z,74.92
2018-12-25T18:49:53.155Z,74.77
2018-12-25T18:52:22.507Z,74.66
2018-12-25T18:54:51.687Z,74.46
2018-12-25T18:57:20.988Z,74.55
2018-12-25T18:59:50.279Z,74.32
2018-12-25T19:02:19.558Z,74.47
2018-12-25T19:04:49.038Z,74.37
2018-12-25T19:07:18.303Z,74.51
2018-12-25T19:09:47.578Z,74.65
2018-12-25T19:12:16.864Z,74.83
2018-12-25T19:14:57.376Z,74.24
2018-12-25T19:17:26.903Z,74.19
2018-12-25T19:19:56.178Z,74.44
2018-12-25T19:22:25.491Z,74.20
2018-12-25T19:24:54.774Z,74.15
2018-12-25T19:27:24.048Z,73.93
2018-12-25T19:29:53.334Z,73.95
2018-12-25T19:32:22.642Z,73.71
2018-12-25T19:34:51.988Z,73.63
2018-12-25T19:37:21.272Z,73.43
2018-12-25T19:39:50.540Z,73.61
2018-12-25T19:42:19.822Z,73.68
2018-12-25T19:44:49.108Z,73.78
2018-12-25T19:47:18.492Z,74.03
2018-12-25T19:49:47.808Z,74.03
2018-12-25T19:52:17.193Z,74.31
2018-12-25T19:54:46.511Z,74.04
2018-12-25T19:57:15.762Z,74.20
2018-12-25T19:59:45.064Z,74.46
2018-12-25T20:02:14.321Z,74.34
2018-12-25T20:05:24.169Z,74.50
2018-12-25T20:08:24.945Z,74.76
2018-12-25T20:11:31.908Z,74.88
2018-12-25T20:14:42.628Z,75.11
2018-12-25T20:17:59.730Z,75.33
2018-12-25T20:21:13.192Z,75.45
2018-12-25T20:24:23.563Z,75.49
2018-12-25T20:27:33.314Z,75.74
2018-12-25T20:30:43.430Z,75.79
2018-12-25T20:33:45.624Z,76.09
2018-12-25T20:36:51.814Z,75.96
2018-12-25T20:39:54.017Z,76.03
2018-12-25T20:42:49.010Z,76.10
2018-12-25T20:46:18.737Z,76.12
2018-12-25T20:49:43.295Z,76.17
2018-12-25T20:52:30.845Z,76.29
2018-12-25T20:55:43.884Z,76.37
2018-12-25T20:58:42.044Z,76.40
2018-12-25T21:01:59.178Z,76.74
2018-12-25T21:05:05.946Z,76.67
2018-12-25T21:08:15.628Z,76.41
2018-12-25T21:11:37.838Z,76.56
2018-12-25T21:14:43.425Z,76.60
2018-12-25T21:18:10.508Z,76.56
2018-12-25T21:21:19.674Z,76.95
2018-12-25T21:24:25.640Z,76.86
2018-12-25T21:27:31.757Z,77.01
2018-12-25T21:30:05.937Z,76.82
2018-12-25T21:32:40.236Z,77.00
2018-12-25T21:35:13.542Z,77.08
2018-12-25T21:37:42.830Z,76.94
2018-12-25T21:40:12.212Z,77.03
2018-12-25T21:42:41.407Z,77.09
2018-12-25T21:45:10.726Z,77.07
2018-12-25T21:47:41.311Z,77.02
2018-12-25T21:50:09.300Z,77.00
2018-12-25T21:52:38.880Z,76.70
2018-12-25T21:55:09.361Z,76.92
2018-12-25T21:57:38.816Z,76.82
2018-12-25T22:00:10.832Z,76.48
2018-12-25T22:02:40.956Z,76.55
2018-12-25T22:05:10.225Z,76.14
2018-12-25T22:07:39.583Z,76.24
2018-12-25T22:10:09.115Z,76.33
2018-12-25T22:12:38.417Z,76.20
2018-12-25T22:15:08.931Z,76.41
2018-12-25T22:17:38.250Z,76.36
2018-12-25T22:20:26.660Z,76.26
2018-12-25T22:22:55.986Z,75.85
2018-12-25T22:25:27.278Z,75.78
2018-12-25T22:27:54.550Z,75.37
2018-12-25T22:30:23.911Z,75.22
2018-12-25T22:32:53.217Z,75.23
2018-12-25T22:35:22.575Z,75.46
2018-12-25T22:37:51.843Z,75.11
2018-12-25T22:40:21.186Z,75.25
2018-12-25T22:42:50.491Z,75.01
2018-12-25T22:45:19.733Z,75.03
2018-12-25T22:47:49.122Z,74.76
2018-12-25T22:50:18.419Z,74.72
2018-12-25T22:52:47.778Z,74.38
2018-12-25T22:55:17.161Z,74.16
2018-12-25T22:57:46.536Z,74.20
2018-12-25T23:00:15.747Z,74.22
2018-12-25T23:02:45.000Z,73.86
2018-12-25T23:05:14.275Z,73.97
2018-12-25T23:07:43.563Z,73.61
2018-12-25T23:10:12.889Z,73.53
2018-12-25T23:12:42.151Z,73.67
2018-12-25T23:15:11.442Z,73.88
2018-12-25T23:17:40.768Z,74.00
2018-12-25T23:20:10.047Z,73.75
2018-12-25T23:22:39.374Z,73.31
2018-12-25T23:25:08.768Z,73.39
2018-12-25T23:27:38.103Z,73.19
2018-12-25T23:30:07.366Z,72.75
2018-12-25T23:32:36.712Z,72.85
2018-12-25T23:35:06.101Z,73.00
2018-12-25T23:37:35.372Z,72.66
2018-12-25T23:40:05.915Z,72.68
2018-12-25T23:42:34.164Z,72.92
2018-12-25T23:45:03.394Z,72.90
2018-12-25T23:47:32.661Z,72.70
2018-12-25T23:50:01.986Z,72.56
2018-12-25T23:52:31.254Z,72.79
2018-12-25T23:55:00.552Z,72.73
2018-12-25T23:57:29.827Z,72.60
2018-12-25T23:59:59.239Z,72.75
